Time;durP1;ratioP1;P1;durP2;ratioP2;P2;SDS_P1;SDS_P2;PMS_P1;PMS_P2;Temp;Humidity;BMP_temperature;BMP_pressure;BME280_temperature;BME280_humidity;BME280_pressure;Samples;Min_cycle;Max_cycle;Signal;HPM_P1;HPM_P2
2022/12/01 00:01:34;;;;;;;71.25;27.05;;;;;;;;;;5114620;28;20197;-65
2022/12/01 00:04:01;;;;;;;57.95;26.85;;;;;;;;;;5114304;28;20196;-66
2022/12/01 00:06:28;;;;;;;72.05;26.75;;;;;;;;;;5114357;28;20199;-65
2022/12/01 00:11:56;;;;;;;74.35;26.52;;;;;;;;;;5031517;28;20198;-66
2022/12/01 00:14:23;;;;;;;79.05;29.88;;;;;;;;;;5058075;28;20196;-66
2022/12/01 00:16:50;;;;;;;69.55;30.05;;;;;;;;;;5114168;28;20202;-66
2022/12/01 00:19:18;;;;;;;76.70;28.52;;;;;;;;;;5114072;28;20708;-66
2022/12/01 00:21:46;;;;;;;77.65;28.65;;;;;;;;;;5114244;28;20560;-66
2022/12/01 00:24:14;;;;;;;85.35;30.05;;;;;;;;;;5114022;28;20299;-66
2022/12/01 00:26:41;;;;;;;69.43;30.52;;;;;;;;;;5114722;28;20656;-66
2022/12/01 00:29:09;;;;;;;82.15;31.08;;;;;;;;;;5113899;28;20213;-66
2022/12/01 00:31:36;;;;;;;72.20;28.15;;;;;;;;;;5113693;28;20229;-66
2022/12/01 00:34:03;;;;;;;75.60;27.90;;;;;;;;;;5113866;28;20214;-66
2022/12/01 00:36:31;;;;;;;69.13;27.92;;;;;;;;;;5113966;28;20196;-65
2022/12/01 00:38:58;;;;;;;89.38;28.40;;;;;;;;;;5114032;28;20191;-65
2022/12/01 00:41:26;;;;;;;85.88;30.92;;;;;;;;;;5113698;28;20192;-66
2022/12/01 00:43:54;;;;;;;92.78;31.50;;;;;;;;;;5113259;28;20231;-65
2022/12/01 00:46:21;;;;;;;77.25;28.35;;;;;;;;;;5113819;28;20290;-65
2022/12/01 00:48:48;;;;;;;81.85;28.60;;;;;;;;;;5113473;28;20259;-65
2022/12/01 00:51:15;;;;;;;82.93;29.48;;;;;;;;;;5113431;28;20229;-65
2022/12/01 00:53:42;;;;;;;81.90;31.05;;;;;;;;;;5113914;28;20195;-66
2022/12/01 00:56:10;;;;;;;84.13;30.50;;;;;;;;;;5113740;28;20286;-65
2022/12/01 00:58:38;;;;;;;88.22;30.17;;;;;;;;;;5113727;28;20384;-66
2022/12/01 01:01:06;;;;;;;89.15;29.92;;;;;;;;;;5113886;28;20207;-65
2022/12/01 01:03:33;;;;;;;70.00;27.67;;;;;;;;;;5114721;28;20192;-65
2022/12/01 01:06:04;;;;;;;79.38;31.48;;;;;;;;;;5117777;28;20550;-65
2022/12/01 01:08:31;;;;;;;72.32;28.58;;;;;;;;;;5117814;28;20278;-65
2022/12/01 01:11:00;;;;;;;65.55;27.88;;;;;;;;;;5117194;28;20227;-66
2022/12/01 01:13:27;;;;;;;69.50;30.10;;;;;;;;;;5117803;28;20196;-66
2022/12/01 01:16:00;;;;;;;63.88;29.08;;;;;;;;;;5117538;28;20200;-65
2022/12/01 01:18:27;;;;;;;60.28;25.40;;;;;;;;;;5117303;28;20193;-65
2022/12/01 01:20:58;;;;;;;58.30;24.55;;;;;;;;;;5117159;28;20197;-65
2022/12/01 01:23:25;;;;;;;61.42;28.00;;;;;;;;;;5117535;28;20544;-66
2022/12/01 01:25:52;;;;;;;59.28;25.45;;;;;;;;;;5117070;28;20198;-66
2022/12/01 01:28:20;;;;;;;60.17;27.27;;;;;;;;;;5117594;28;20196;-65
2022/12/01 01:30:47;;;;;;;57.95;25.17;;;;;;;;;;5117233;28;20215;-66
2022/12/01 01:33:16;;;;;;;64.80;27.50;;;;;;;;;;5117406;28;20200;-66
2022/12/01 01:35:43;;;;;;;50.40;23.95;;;;;;;;;;5116829;28;20198;-66
2022/12/01 01:38:10;;;;;;;54.03;24.35;;;;;;;;;;5116897;28;20539;-66
2022/12/01 01:40:43;;;;;;;56.92;24.55;;;;;;;;;;5117313;28;20232;-66
2022/12/01 01:43:13;;;;;;;53.97;24.42;;;;;;;;;;5116990;28;20232;-65
2022/12/01 01:45:41;;;;;;;58.90;25.52;;;;;;;;;;5117226;28;20184;-65
2022/12/01 01:48:08;;;;;;;52.20;25.42;;;;;;;;;;5117034;28;20272;-66
2022/12/01 01:50:37;;;;;;;54.45;25.38;;;;;;;;;;5116512;28;20302;-66
2022/12/01 01:53:07;;;;;;;52.10;23.58;;;;;;;;;;5116958;28;20191;-66
2022/12/01 01:55:35;;;;;;;60.28;25.90;;;;;;;;;;5116609;28;20181;-66
2022/12/01 01:58:02;;;;;;;42.65;24.25;;;;;;;;;;5117288;28;20203;-67
2022/12/01 02:00:29;;;;;;;59.60;23.52;;;;;;;;;;5116604;28;20633;-66
2022/12/01 02:02:57;;;;;;;56.88;26.27;;;;;;;;;;5116773;28;20287;-65
2022/12/01 02:05:25;;;;;;;63.97;27.15;;;;;;;;;;5116618;28;20550;-65
2022/12/01 02:07:55;;;;;;;63.22;27.05;;;;;;;;;;5116989;28;20204;-67
2022/12/01 02:10:25;;;;;;;69.22;27.85;;;;;;;;;;5116080;28;20219;-66
2022/12/01 02:13:02;;;;;;;58.72;27.13;;;;;;;;;;5116978;28;20554;-66
2022/12/01 02:15:32;;;;;;;56.70;27.25;;;;;;;;;;5116187;28;20541;-66
2022/12/01 02:18:06;;;;;;;57.47;24.83;;;;;;;;;;5116395;28;20192;-66
2022/12/01 02:20:51;;;;;;;57.30;27.25;;;;;;;;;;5116889;28;20281;-65
2022/12/01 02:23:45;;;;;;;51.53;25.13;;;;;;;;;;5116364;28;20200;-65
2022/12/01 02:26:27;;;;;;;52.03;24.52;;;;;;;;;;5080158;28;20197;-66
2022/12/01 02:29:06;;;;;;;56.78;25.20;;;;;;;;;;5116337;28;20189;-66
2022/12/01 02:31:40;;;;;;;64.07;24.20;;;;;;;;;;5115899;28;20699;-66
2022/12/01 02:34:11;;;;;;;56.28;25.75;;;;;;;;;;5115853;28;20652;-65
2022/12/01 02:36:42;;;;;;;54.90;25.45;;;;;;;;;;5116100;28;20195;-66
2022/12/01 02:39:11;;;;;;;53.53;22.77;;;;;;;;;;5116227;28;20188;-65
2022/12/01 02:41:40;;;;;;;50.17;24.38;;;;;;;;;;5115583;28;20207;-65
2022/12/01 02:44:09;;;;;;;44.03;22.58;;;;;;;;;;5116415;28;20284;-66
2022/12/01 02:46:40;;;;;;;45.97;22.83;;;;;;;;;;5115923;28;20202;-66
2022/12/01 02:49:10;;;;;;;44.90;23.75;;;;;;;;;;5116053;28;20199;-66
2022/12/01 02:51:39;;;;;;;51.92;24.67;;;;;;;;;;5115712;28;20216;-66
2022/12/01 02:54:07;;;;;;;45.63;23.08;;;;;;;;;;5115764;28;20270;-66
2022/12/01 02:56:34;;;;;;;45.50;25.65;;;;;;;;;;5115763;28;20206;-66
2022/12/01 02:59:01;;;;;;;47.53;23.35;;;;;;;;;;5115696;28;20198;-66
2022/12/01 03:01:36;;;;;;;46.35;21.77;;;;;;;;;;5115537;28;20195;-65
2022/12/01 03:04:11;;;;;;;46.25;23.10;;;;;;;;;;5115555;28;20178;-66
2022/12/01 03:06:43;;;;;;;53.78;25.85;;;;;;;;;;5115589;28;20648;-66
2022/12/01 03:09:16;;;;;;;47.33;23.48;;;;;;;;;;5116114;28;20188;-65
2022/12/01 03:11:47;;;;;;;57.00;25.90;;;;;;;;;;5115258;28;20246;-65
2022/12/01 03:14:18;;;;;;;56.00;25.85;;;;;;;;;;5115546;28;20272;-65
2022/12/01 03:16:50;;;;;;;52.28;27.30;;;;;;;;;;5115564;28;20538;-66
2022/12/01 03:19:21;;;;;;;48.35;24.00;;;;;;;;;;5116196;28;20180;-66
2022/12/01 03:21:52;;;;;;;50.90;22.58;;;;;;;;;;5115164;28;20206;-66
2022/12/01 03:24:20;;;;;;;50.20;25.58;;;;;;;;;;5115194;28;20539;-65
2022/12/01 03:26:50;;;;;;;56.00;27.35;;;;;;;;;;5114206;28;20198;-65
2022/12/01 03:29:19;;;;;;;55.13;24.27;;;;;;;;;;5114797;28;20192;-65
2022/12/01 03:31:49;;;;;;;56.33;27.73;;;;;;;;;;5114805;28;20257;-65
2022/12/01 03:34:18;;;;;;;52.83;25.10;;;;;;;;;;5115066;28;20199;-65
2022/12/01 03:36:50;;;;;;;54.47;25.88;;;;;;;;;;5114896;28;20279;-65
2022/12/01 03:39:19;;;;;;;67.82;28.45;;;;;;;;;;5115132;28;20185;-65
2022/12/01 03:41:49;;;;;;;61.15;26.42;;;;;;;;;;5114420;28;20190;-65
2022/12/01 03:44:19;;;;;;;67.95;27.60;;;;;;;;;;5114525;28;20198;-65
2022/12/01 03:46:49;;;;;;;59.58;26.80;;;;;;;;;;5115230;28;20190;-65
2022/12/01 03:49:17;;;;;;;62.65;26.85;;;;;;;;;;5114306;28;20230;-66
2022/12/01 03:51:49;;;;;;;56.47;27.13;;;;;;;;;;5114451;28;20224;-65
2022/12/01 03:54:20;;;;;;;62.20;26.02;;;;;;;;;;5114858;28;20199;-66
2022/12/01 03:56:48;;;;;;;54.35;27.55;;;;;;;;;;5114832;28;20194;-67
2022/12/01 03:59:17;;;;;;;64.32;26.27;;;;;;;;;;5114488;28;20198;-66
2022/12/01 04:01:45;;;;;;;68.20;28.80;;;;;;;;;;5114388;28;20207;-65
2022/12/01 04:04:13;;;;;;;61.10;27.45;;;;;;;;;;5114348;28;20192;-65
2022/12/01 04:06:43;;;;;;;52.72;24.63;;;;;;;;;;5113973;28;20205;-66
2022/12/01 04:09:10;;;;;;;61.47;27.25;;;;;;;;;;5114281;28;20195;-65
2022/12/01 04:14:23;;;;;;;66.63;27.58;;;;;;;;;;5114198;28;20227;-66
2022/12/01 04:16:50;;;;;;;54.33;26.48;;;;;;;;;;5114093;28;20197;-66
2022/12/01 04:19:17;;;;;;;62.53;29.23;;;;;;;;;;5114928;28;20196;-65
2022/12/01 04:21:45;;;;;;;69.40;29.30;;;;;;;;;;5114110;28;20646;-65
2022/12/01 04:24:12;;;;;;;65.50;26.65;;;;;;;;;;5114145;28;20205;-65
2022/12/01 04:26:41;;;;;;;59.40;27.15;;;;;;;;;;5113970;28;20239;-66
2022/12/01 04:29:09;;;;;;;70.93;29.17;;;;;;;;;;5114059;28;20200;-66
2022/12/01 04:31:37;;;;;;;72.90;28.83;;;;;;;;;;5113562;28;20219;-66
2022/12/01 04:34:04;;;;;;;73.95;28.73;;;;;;;;;;5114087;28;20196;-66
2022/12/01 04:36:32;;;;;;;75.05;29.52;;;;;;;;;;5114373;28;20203;-66
2022/12/01 04:38:59;;;;;;;71.07;29.73;;;;;;;;;;5113936;28;20332;-66
2022/12/01 04:41:27;;;;;;;62.83;29.38;;;;;;;;;;5113972;28;20199;-65
2022/12/01 04:43:55;;;;;;;72.70;27.15;;;;;;;;;;5114278;28;20228;-66
2022/12/01 04:46:23;;;;;;;77.45;30.23;;;;;;;;;;5114260;28;20202;-66
2022/12/01 04:48:50;;;;;;;75.70;31.52;;;;;;;;;;5113486;28;20210;-66
2022/12/01 04:51:18;;;;;;;67.75;30.95;;;;;;;;;;5114175;28;20227;-68
2022/12/01 04:53:45;;;;;;;73.28;30.70;;;;;;;;;;5113825;28;20619;-66
2022/12/01 04:56:12;;;;;;;77.80;29.45;;;;;;;;;;5113887;28;20199;-66
2022/12/01 04:58:39;;;;;;;88.00;31.65;;;;;;;;;;5113749;28;20193;-66
2022/12/01 05:01:09;;;;;;;77.47;28.90;;;;;;;;;;5113228;28;20206;-65
2022/12/01 05:03:37;;;;;;;88.38;32.17;;;;;;;;;;5113276;28;20284;-66
2022/12/01 05:06:04;;;;;;;79.85;31.77;;;;;;;;;;5113441;28;20192;-66
2022/12/01 05:08:32;;;;;;;87.50;30.30;;;;;;;;;;5113671;28;20320;-66
2022/12/01 05:11:00;;;;;;;72.75;30.85;;;;;;;;;;5113456;28;20302;-66
2022/12/01 05:13:27;;;;;;;84.70;31.13;;;;;;;;;;5113756;28;20202;-66
2022/12/01 05:15:54;;;;;;;75.63;33.65;;;;;;;;;;5113315;28;20315;-67
2022/12/01 05:18:23;;;;;;;90.93;35.38;;;;;;;;;;5113257;28;20203;-66
2022/12/01 05:20:58;;;;;;;88.80;33.25;;;;;;;;;;5113296;28;20205;-66
2022/12/01 05:23:26;;;;;;;102.65;36.90;;;;;;;;;;5113617;28;20195;-67
2022/12/01 05:25:53;;;;;;;91.88;35.83;;;;;;;;;;5113689;28;20202;-67
2022/12/01 05:28:21;;;;;;;105.47;33.55;;;;;;;;;;5113445;28;20197;-66
2022/12/01 05:30:48;;;;;;;96.97;31.60;;;;;;;;;;5113340;28;20654;-66
2022/12/01 05:33:15;;;;;;;116.38;35.33;;;;;;;;;;5113615;28;20223;-66
2022/12/01 05:35:44;;;;;;;83.30;33.70;;;;;;;;;;5113351;28;20193;-66
2022/12/01 05:38:11;;;;;;;102.13;34.22;;;;;;;;;;5113011;28;20203;-66
2022/12/01 05:40:39;;;;;;;111.70;36.08;;;;;;;;;;5113398;28;20291;-66
2022/12/01 05:43:06;;;;;;;88.00;31.50;;;;;;;;;;5113064;28;20233;-65
2022/12/01 05:45:34;;;;;;;101.22;32.55;;;;;;;;;;5113597;28;20196;-66
2022/12/01 05:48:01;;;;;;;94.97;33.83;;;;;;;;;;5113623;28;20653;-66
2022/12/01 05:50:29;;;;;;;97.65;32.88;;;;;;;;;;5115870;28;20282;-66
2022/12/01 05:52:58;;;;;;;90.15;35.58;;;;;;;;;;5116927;28;20572;-66
2022/12/01 05:55:25;;;;;;;111.70;34.20;;;;;;;;;;5116633;28;20190;-66
2022/12/01 05:57:52;;;;;;;91.72;34.65;;;;;;;;;;5116762;28;20200;-66
2022/12/01 06:00:20;;;;;;;96.93;31.90;;;;;;;;;;5116950;28;20201;-66
2022/12/01 06:02:47;;;;;;;86.68;33.40;;;;;;;;;;5116601;28;20294;-65
2022/12/01 06:05:14;;;;;;;103.65;32.30;;;;;;;;;;5116436;28;20670;-66
2022/12/01 06:07:41;;;;;;;102.70;33.55;;;;;;;;;;5116662;28;20556;-66
2022/12/01 06:10:10;;;;;;;83.10;29.35;;;;;;;;;;5116590;28;20198;-66
2022/12/01 06:12:38;;;;;;;80.60;28.23;;;;;;;;;;5116812;28;20215;-67
2022/12/01 06:15:06;;;;;;;73.53;28.67;;;;;;;;;;5116689;28;20206;-67
2022/12/01 06:17:34;;;;;;;81.70;30.67;;;;;;;;;;5116384;28;20207;-67
2022/12/01 06:20:01;;;;;;;75.63;29.23;;;;;;;;;;5116011;28;20200;-68
2022/12/01 06:22:28;;;;;;;83.38;30.75;;;;;;;;;;5116532;28;20534;-67
2022/12/01 06:24:55;;;;;;;71.18;30.75;;;;;;;;;;5116295;28;20196;-68
2022/12/01 06:27:24;;;;;;;74.88;28.83;;;;;;;;;;5116208;28;20291;-67
2022/12/01 06:29:51;;;;;;;83.35;34.35;;;;;;;;;;5116099;28;20676;-67
2022/12/01 06:32:18;;;;;;;79.07;27.45;;;;;;;;;;5116102;28;20219;-67
2022/12/01 06:34:46;;;;;;;79.53;28.80;;;;;;;;;;5115984;28;20216;-67
2022/12/01 06:37:14;;;;;;;77.85;31.25;;;;;;;;;;5116142;28;20200;-68
2022/12/01 06:39:41;;;;;;;72.43;27.38;;;;;;;;;;5116000;28;20203;-67
2022/12/01 06:42:09;;;;;;;70.85;27.23;;;;;;;;;;5116039;28;20561;-67
2022/12/01 06:44:37;;;;;;;67.97;29.13;;;;;;;;;;5116069;28;20652;-67
2022/12/01 06:47:06;;;;;;;57.17;24.83;;;;;;;;;;5115552;28;20192;-67
2022/12/01 06:49:34;;;;;;;55.10;24.65;;;;;;;;;;5115577;28;20191;-67
2022/12/01 06:52:01;;;;;;;58.88;23.88;;;;;;;;;;5115357;28;20700;-67
2022/12/01 06:54:28;;;;;;;59.47;23.33;;;;;;;;;;5115575;28;20235;-67
2022/12/01 06:56:57;;;;;;;60.90;25.00;;;;;;;;;;5115457;28;20285;-67
2022/12/01 06:59:24;;;;;;;57.95;23.75;;;;;;;;;;5115543;28;20227;-67
2022/12/01 07:01:53;;;;;;;47.05;20.90;;;;;;;;;;5114322;28;20196;-68
2022/12/01 07:04:20;;;;;;;54.08;23.17;;;;;;;;;;5115445;28;20275;-68
2022/12/01 07:06:48;;;;;;;46.97;22.98;;;;;;;;;;5115561;28;20197;-67
2022/12/01 07:09:15;;;;;;;64.97;23.38;;;;;;;;;;5115588;28;20195;-67
2022/12/01 07:11:42;;;;;;;52.38;22.63;;;;;;;;;;5115004;28;20271;-67
2022/12/01 07:14:16;;;;;;;55.10;22.45;;;;;;;;;;5115129;28;20248;-67
2022/12/01 07:16:43;;;;;;;47.47;22.48;;;;;;;;;;5115624;28;20544;-67
2022/12/01 07:19:12;;;;;;;40.10;22.00;;;;;;;;;;5115194;28;20224;-68
2022/12/01 07:21:39;;;;;;;56.88;25.30;;;;;;;;;;5115159;28;20222;-67
2022/12/01 07:24:07;;;;;;;42.53;21.60;;;;;;;;;;5114796;28;20193;-68
2022/12/01 07:26:34;;;;;;;47.85;22.83;;;;;;;;;;5115346;28;20276;-67
2022/12/01 07:29:01;;;;;;;48.40;23.00;;;;;;;;;;5115364;28;20199;-67
2022/12/01 07:31:28;;;;;;;51.78;21.45;;;;;;;;;;5114564;28;20202;-67
2022/12/01 07:33:55;;;;;;;40.88;21.40;;;;;;;;;;5114436;28;20193;-68
2022/12/01 07:36:24;;;;;;;49.88;22.38;;;;;;;;;;5115318;28;20561;-67
2022/12/01 07:38:51;;;;;;;49.55;24.10;;;;;;;;;;5115228;28;20200;-67
2022/12/01 07:41:19;;;;;;;48.35;19.83;;;;;;;;;;5114725;28;20196;-67
2022/12/01 07:43:47;;;;;;;47.50;22.50;;;;;;;;;;5115284;28;20238;-68
2022/12/01 07:46:15;;;;;;;43.03;19.67;;;;;;;;;;5114559;28;20201;-67
2022/12/01 07:48:42;;;;;;;51.03;23.70;;;;;;;;;;5114569;28;20278;-67
2022/12/01 07:51:10;;;;;;;47.13;21.15;;;;;;;;;;5114681;28;20202;-67
2022/12/01 07:53:39;;;;;;;39.15;19.13;;;;;;;;;;5114947;28;20216;-67
2022/12/01 07:56:06;;;;;;;39.55;22.00;;;;;;;;;;5114498;28;20231;-67
2022/12/01 07:58:34;;;;;;;52.80;23.17;;;;;;;;;;5114213;28;20202;-67
2022/12/01 08:01:06;;;;;;;37.25;20.80;;;;;;;;;;5114725;28;20206;-67
2022/12/01 08:03:33;;;;;;;51.60;22.08;;;;;;;;;;5114159;28;20189;-67
2022/12/01 08:06:01;;;;;;;52.55;21.35;;;;;;;;;;5114336;28;20563;-67
2022/12/01 08:08:29;;;;;;;38.55;19.35;;;;;;;;;;5114033;28;20206;-68
2022/12/01 08:11:00;;;;;;;38.35;20.77;;;;;;;;;;5113859;28;20195;-68
2022/12/01 08:13:27;;;;;;;51.15;21.00;;;;;;;;;;5114518;28;20212;-67
2022/12/01 08:15:54;;;;;;;41.60;21.15;;;;;;;;;;5113921;28;20691;-67
2022/12/01 08:18:22;;;;;;;49.75;22.25;;;;;;;;;;5115000;28;20540;-68
2022/12/01 08:20:49;;;;;;;42.53;22.45;;;;;;;;;;5113810;28;20203;-68
2022/12/01 08:23:16;;;;;;;47.58;23.35;;;;;;;;;;5114152;28;20195;-68
2022/12/01 08:25:43;;;;;;;47.97;23.02;;;;;;;;;;5113768;28;20231;-68
2022/12/01 08:28:12;;;;;;;45.85;25.05;;;;;;;;;;5113768;28;20196;-67
2022/12/01 08:30:39;;;;;;;47.50;24.80;;;;;;;;;;5113734;28;20286;-67
2022/12/01 08:33:06;;;;;;;40.80;22.25;;;;;;;;;;5114469;28;20650;-67
2022/12/01 08:35:37;;;;;;;51.75;25.52;;;;;;;;;;5114087;28;20195;-68
2022/12/01 08:38:04;;;;;;;47.33;27.15;;;;;;;;;;5113780;28;20274;-67
2022/12/01 08:40:31;;;;;;;50.97;26.08;;;;;;;;;;5113844;28;20196;-67
2022/12/01 08:42:58;;;;;;;48.55;26.45;;;;;;;;;;5113810;28;20231;-67
2022/12/01 08:45:27;;;;;;;54.95;26.88;;;;;;;;;;5114222;28;20191;-67
2022/12/01 08:47:57;;;;;;;68.75;30.83;;;;;;;;;;5114210;28;20221;-67
2022/12/01 08:50:25;;;;;;;63.20;29.65;;;;;;;;;;5114155;28;20203;-68
2022/12/01 08:52:52;;;;;;;58.28;31.63;;;;;;;;;;5113752;28;20215;-68
2022/12/01 08:55:20;;;;;;;65.47;29.88;;;;;;;;;;5113937;28;20217;-68
2022/12/01 08:57:47;;;;;;;63.88;34.05;;;;;;;;;;5113489;28;20199;-68
2022/12/01 09:00:15;;;;;;;67.80;32.25;;;;;;;;;;5113635;28;20203;-67
2022/12/01 09:02:43;;;;;;;66.53;34.78;;;;;;;;;;5113785;28;20227;-68
2022/12/01 09:05:10;;;;;;;79.85;32.40;;;;;;;;;;5113467;28;20199;-67
2022/12/01 09:07:38;;;;;;;61.95;33.38;;;;;;;;;;5113128;28;20196;-67
2022/12/01 09:10:05;;;;;;;64.43;33.33;;;;;;;;;;5113535;28;20228;-67
2022/12/01 09:12:32;;;;;;;67.50;30.95;;;;;;;;;;5113262;28;20250;-67
2022/12/01 09:15:00;;;;;;;76.68;33.58;;;;;;;;;;5113941;28;20193;-68
2022/12/01 09:17:27;;;;;;;66.00;34.30;;;;;;;;;;5113434;28;20282;-68
2022/12/01 09:19:55;;;;;;;69.80;34.65;;;;;;;;;;5113656;28;20283;-68
2022/12/01 09:22:22;;;;;;;75.75;34.20;;;;;;;;;;5113505;28;20204;-70
2022/12/01 09:24:50;;;;;;;76.63;34.50;;;;;;;;;;5115579;28;20196;-68
2022/12/01 09:27:17;;;;;;;64.68;33.42;;;;;;;;;;5117355;28;20193;-67
2022/12/01 09:29:44;;;;;;;81.43;34.45;;;;;;;;;;5117254;28;20191;-68
2022/12/01 09:32:11;;;;;;;64.35;32.78;;;;;;;;;;5117455;28;20286;-68
2022/12/01 09:34:38;;;;;;;76.30;36.45;;;;;;;;;;5117112;28;20285;-68
2022/12/01 09:37:07;;;;;;;66.38;35.65;;;;;;;;;;5117043;28;20212;-67
2022/12/01 09:39:34;;;;;;;73.97;34.83;;;;;;;;;;5117259;28;20286;-67
2022/12/01 09:42:03;;;;;;;69.88;35.63;;;;;;;;;;5116653;28;20728;-68
2022/12/01 09:44:34;;;;;;;67.57;33.58;;;;;;;;;;5117256;28;20280;-67
2022/12/01 09:47:06;;;;;;;69.43;38.20;;;;;;;;;;5117164;28;20184;-67
2022/12/01 09:49:38;;;;;;;71.53;37.70;;;;;;;;;;5117699;28;20212;-67
2022/12/01 09:52:10;;;;;;;72.32;35.70;;;;;;;;;;5117073;28;20187;-68
2022/12/01 09:54:37;;;;;;;75.93;37.78;;;;;;;;;;5117855;28;20211;-67
2022/12/01 09:57:04;;;;;;;77.40;37.35;;;;;;;;;;5117230;28;20552;-67
2022/12/01 09:59:33;;;;;;;74.00;35.97;;;;;;;;;;5117003;28;20200;-67
2022/12/01 10:02:03;;;;;;;76.53;36.95;;;;;;;;;;5116832;28;20211;-67
2022/12/01 10:04:34;;;;;;;85.30;41.08;;;;;;;;;;5116505;28;20262;-67
2022/12/01 10:07:03;;;;;;;88.60;39.75;;;;;;;;;;5116481;28;20198;-67
2022/12/01 10:09:35;;;;;;;80.03;38.58;;;;;;;;;;5117225;28;20202;-68
2022/12/01 10:12:07;;;;;;;85.90;41.00;;;;;;;;;;5116677;28;20195;-68
2022/12/01 10:14:35;;;;;;;75.13;38.60;;;;;;;;;;5116758;28;20208;-67
2022/12/01 10:17:08;;;;;;;90.25;39.63;;;;;;;;;;5116645;28;20203;-68
2022/12/01 10:19:40;;;;;;;90.28;40.85;;;;;;;;;;5116340;28;20212;-67
2022/12/01 10:22:19;;;;;;;92.05;41.60;;;;;;;;;;5116631;28;20188;-67
2022/12/01 10:24:52;;;;;;;94.90;42.42;;;;;;;;;;5117072;28;20546;-67
2022/12/01 10:27:23;;;;;;;85.10;40.85;;;;;;;;;;5116308;28;20184;-67
2022/12/01 10:29:53;;;;;;;90.45;40.03;;;;;;;;;;5115988;28;20191;-68
2022/12/01 10:32:21;;;;;;;89.78;43.17;;;;;;;;;;5115835;28;20194;-67
2022/12/01 10:34:49;;;;;;;80.72;40.70;;;;;;;;;;5115949;28;20557;-67
2022/12/01 10:37:17;;;;;;;91.43;41.08;;;;;;;;;;5115763;28;20202;-67
2022/12/01 10:39:46;;;;;;;85.45;41.42;;;;;;;;;;5116305;28;20650;-66
2022/12/01 10:42:17;;;;;;;81.45;39.60;;;;;;;;;;5116138;28;20235;-66
2022/12/01 10:44:44;;;;;;;79.13;40.50;;;;;;;;;;5115687;28;20199;-67
2022/12/01 10:47:17;;;;;;;87.53;42.55;;;;;;;;;;5116202;28;20206;-68
2022/12/01 10:49:45;;;;;;;81.88;41.08;;;;;;;;;;5116000;28;20648;-67
2022/12/01 10:52:30;;;;;;;85.53;40.92;;;;;;;;;;5116114;28;20295;-67
2022/12/01 10:55:05;;;;;;;77.90;39.00;;;;;;;;;;5116161;28;20274;-67
2022/12/01 10:57:36;;;;;;;76.88;39.13;;;;;;;;;;5115649;28;20191;-67
2022/12/01 11:00:05;;;;;;;81.78;40.80;;;;;;;;;;5115868;28;20194;-68
2022/12/01 11:02:33;;;;;;;86.00;42.25;;;;;;;;;;5115777;28;20203;-67
2022/12/01 11:05:01;;;;;;;71.60;36.72;;;;;;;;;;5115842;28;20223;-67
2022/12/01 11:07:29;;;;;;;71.18;40.08;;;;;;;;;;5115251;28;20658;-67
2022/12/01 11:10:02;;;;;;;78.30;36.75;;;;;;;;;;5115663;28;20235;-67
2022/12/01 11:12:29;;;;;;;76.10;37.70;;;;;;;;;;5115603;28;20196;-68
2022/12/01 11:14:58;;;;;;;71.05;35.40;;;;;;;;;;5115038;28;20195;-67
2022/12/01 11:17:33;;;;;;;75.70;37.90;;;;;;;;;;5114859;28;20192;-67
2022/12/01 11:20:17;;;;;;;71.32;37.22;;;;;;;;;;5114995;28;20284;-67
2022/12/01 11:22:44;;;;;;;71.95;37.88;;;;;;;;;;5114915;28;20200;-66
2022/12/01 11:25:20;;;;;;;77.78;38.00;;;;;;;;;;5115420;28;20197;-67
2022/12/01 11:27:49;;;;;;;68.88;38.58;;;;;;;;;;5114815;28;20275;-67
2022/12/01 11:30:23;;;;;;;72.13;38.05;;;;;;;;;;5114791;28;20189;-67
2022/12/01 11:32:53;;;;;;;75.45;37.85;;;;;;;;;;5115101;28;20283;-68
2022/12/01 11:35:21;;;;;;;74.15;39.50;;;;;;;;;;5115782;28;20199;-67
2022/12/01 11:37:50;;;;;;;79.45;40.35;;;;;;;;;;5114879;28;20215;-67
2022/12/01 11:40:20;;;;;;;80.55;37.97;;;;;;;;;;5114876;28;20192;-67
2022/12/01 11:42:49;;;;;;;79.15;41.15;;;;;;;;;;5114191;28;20234;-67
2022/12/01 11:45:25;;;;;;;89.95;45.55;;;;;;;;;;5114734;28;20199;-67
2022/12/01 11:48:04;;;;;;;81.50;41.30;;;;;;;;;;5114403;28;20187;-67
2022/12/01 11:50:32;;;;;;;83.47;39.90;;;;;;;;;;5115236;28;20231;-67
2022/12/01 11:53:00;;;;;;;81.13;39.42;;;;;;;;;;5114976;28;20534;-67
2022/12/01 11:55:28;;;;;;;86.72;42.38;;;;;;;;;;5114683;28;20200;-67
2022/12/01 11:57:57;;;;;;;77.75;39.80;;;;;;;;;;5114102;28;20199;-67
2022/12/01 12:00:26;;;;;;;80.00;40.85;;;;;;;;;;5114249;28;20290;-68
2022/12/01 12:03:03;;;;;;;70.53;39.22;;;;;;;;;;5114421;28;20598;-68
2022/12/01 12:05:44;;;;;;;82.90;39.65;;;;;;;;;;5114227;28;20190;-67
2022/12/01 12:08:18;;;;;;;82.28;40.40;;;;;;;;;;5114495;28;20190;-67
2022/12/01 12:10:50;;;;;;;80.00;38.25;;;;;;;;;;5114919;28;20268;-67
2022/12/01 12:13:27;;;;;;;78.03;38.40;;;;;;;;;;5113945;28;20214;-67
2022/12/01 12:16:01;;;;;;;62.05;36.92;;;;;;;;;;5114821;28;20309;-67
2022/12/01 12:18:46;;;;;;;71.57;38.47;;;;;;;;;;5114028;28;20270;-68
2022/12/01 12:21:19;;;;;;;73.18;37.15;;;;;;;;;;5114032;28;20240;-68
2022/12/01 12:23:58;;;;;;;66.30;36.55;;;;;;;;;;5114458;28;20190;-67
2022/12/01 12:26:26;;;;;;;74.13;39.33;;;;;;;;;;5114616;28;20180;-68
2022/12/01 12:28:58;;;;;;;63.38;35.35;;;;;;;;;;5114206;28;20192;-67
2022/12/01 12:31:29;;;;;;;72.30;38.10;;;;;;;;;;5114280;28;20194;-67
2022/12/01 12:34:21;;;;;;;67.70;37.15;;;;;;;;;;5113822;28;20678;-67
2022/12/01 12:36:53;;;;;;;75.60;40.33;;;;;;;;;;5110531;28;20192;-68
2022/12/01 12:39:29;;;;;;;69.82;36.92;;;;;;;;;;5114294;28;20612;-67
2022/12/01 12:41:56;;;;;;;62.10;35.90;;;;;;;;;;5114142;28;20676;-68
2022/12/01 12:44:31;;;;;;;70.57;35.10;;;;;;;;;;5113858;28;20326;-67
2022/12/01 12:47:03;;;;;;;65.25;35.88;;;;;;;;;;5114370;28;20222;-67
2022/12/01 12:49:37;;;;;;;63.92;35.55;;;;;;;;;;5114646;28;20240;-68
2022/12/01 12:52:05;;;;;;;66.65;38.05;;;;;;;;;;5113856;28;20652;-67
2022/12/01 12:54:35;;;;;;;67.70;35.67;;;;;;;;;;5113446;28;20799;-67
2022/12/01 12:57:03;;;;;;;61.58;35.58;;;;;;;;;;5113802;28;20200;-66
2022/12/01 12:59:34;;;;;;;62.40;36.75;;;;;;;;;;5116482;28;20252;-67
2022/12/01 13:02:10;;;;;;;69.25;34.55;;;;;;;;;;5117937;28;20188;-67
2022/12/01 13:04:40;;;;;;;63.60;35.70;;;;;;;;;;5117910;28;20185;-67
2022/12/01 13:07:22;;;;;;;60.60;34.92;;;;;;;;;;5118412;28;20290;-68
2022/12/01 13:09:53;;;;;;;66.30;35.95;;;;;;;;;;5117799;28;20198;-68
2022/12/01 13:12:23;;;;;;;62.33;35.42;;;;;;;;;;5117976;28;20191;-67
2022/12/01 13:14:53;;;;;;;69.25;38.35;;;;;;;;;;5117677;28;20215;-68
2022/12/01 13:17:27;;;;;;;72.80;37.55;;;;;;;;;;5117502;28;20625;-68
2022/12/01 13:19:54;;;;;;;70.13;37.17;;;;;;;;;;5117303;28;20187;-67
2022/12/01 13:22:24;;;;;;;67.72;37.47;;;;;;;;;;5117845;28;20644;-68
2022/12/01 13:24:51;;;;;;;64.13;36.80;;;;;;;;;;5117315;28;20203;-67
2022/12/01 13:27:21;;;;;;;66.57;38.10;;;;;;;;;;5117861;28;20199;-67
2022/12/01 13:29:49;;;;;;;76.78;37.47;;;;;;;;;;5117476;28;20202;-67
2022/12/01 13:32:29;;;;;;;64.55;37.20;;;;;;;;;;5117105;28;20671;-67
2022/12/01 13:34:56;;;;;;;61.30;33.15;;;;;;;;;;5117612;28;20211;-68
2022/12/01 13:37:26;;;;;;;75.47;35.90;;;;;;;;;;5117377;28;20199;-67
2022/12/01 13:39:55;;;;;;;70.55;35.55;;;;;;;;;;5117460;28;20185;-67
2022/12/01 13:42:22;;;;;;;65.05;34.63;;;;;;;;;;5117216;28;20278;-67
2022/12/01 13:44:52;;;;;;;62.92;35.00;;;;;;;;;;5117346;28;20199;-67
2022/12/01 13:47:48;;;;;;;70.53;36.35;;;;;;;;;;5117495;28;20188;-68
2022/12/01 13:50:34;;;;;;;65.63;37.25;;;;;;;;;;5117226;28;20192;-67
2022/12/01 13:53:10;;;;;;;72.95;37.60;;;;;;;;;;5117011;28;20195;-67
2022/12/01 13:55:53;;;;;;;65.50;34.03;;;;;;;;;;5116400;28;20207;-67
2022/12/01 13:58:41;;;;;;;65.07;35.70;;;;;;;;;;5116997;28;20189;-69
2022/12/01 14:01:28;;;;;;;71.28;37.00;;;;;;;;;;5116844;28;20185;-66
2022/12/01 14:03:59;;;;;;;76.35;38.30;;;;;;;;;;5116697;28;20222;-67
2022/12/01 14:06:28;;;;;;;78.43;37.97;;;;;;;;;;5117037;28;20241;-66
2022/12/01 14:08:58;;;;;;;70.43;37.45;;;;;;;;;;5116922;28;20560;-66
2022/12/01 14:11:26;;;;;;;69.57;37.15;;;;;;;;;;5116325;28;20207;-67
2022/12/01 14:13:55;;;;;;;79.45;38.75;;;;;;;;;;5116696;28;20673;-66
2022/12/01 14:16:22;;;;;;;66.68;37.60;;;;;;;;;;5116819;28;20193;-67
2022/12/01 14:18:51;;;;;;;67.55;36.75;;;;;;;;;;5116611;28;20196;-67
2022/12/01 14:21:39;;;;;;;75.60;38.25;;;;;;;;;;5116109;28;20678;-67
2022/12/01 14:24:07;;;;;;;72.97;38.47;;;;;;;;;;5115491;28;20250;-66
2022/12/01 14:26:43;;;;;;;71.85;38.60;;;;;;;;;;5116001;28;20192;-67
2022/12/01 14:29:23;;;;;;;85.05;40.13;;;;;;;;;;5116959;28;20274;-67
2022/12/01 14:32:24;;;;;;;77.93;36.35;;;;;;;;;;5116079;28;20187;-67
2022/12/01 14:34:56;;;;;;;74.05;35.58;;;;;;;;;;5115933;28;20212;-67
2022/12/01 14:37:26;;;;;;;75.07;39.47;;;;;;;;;;5116209;28;20581;-68